sensor_id;sensor_type;location;lat;lon;timestamp;pressure;altitude;pressure_sealevel;temperature;humidity
28181;BME280;15464;50.988;10.318;2023-04-25T14:41:24;98611.91;;;9.24;43.28
28181;BME280;15464;50.988;10.318;2023-04-25T14:43:51;98614.72;;;9.32;44.43
28181;BME280;15464;50.988;10.318;2023-04-25T14:46:20;98603.56;;;9.28;44.00
28181;BME280;15464;50.988;10.318;2023-04-25T14:48:47;98600.06;;;9.28;43.74
28181;BME280;15464;50.988;10.318;2023-04-25T14:51:14;98592.22;;;9.17;44.24
28181;BME280;15464;50.988;10.318;2023-04-25T14:53:40;98596.19;;;9.32;45.04
28181;BME280;15464;50.988;10.318;2023-04-25T14:56:07;98602.94;;;9.46;44.79
28181;BME280;15464;50.988;10.318;2023-04-25T14:58:35;98600.88;;;9.49;44.39
28181;BME280;15464;50.988;10.318;2023-04-25T15:01:01;98600.38;;;9.35;44.70
28181;BME280;15464;50.988;10.318;2023-04-25T15:03:28;98602.09;;;9.45;44.34
28181;BME280;15464;50.988;10.318;2023-04-25T15:05:55;98611.31;;;9.51;44.61
28181;BME280;15464;50.988;10.318;2023-04-25T15:08:22;98612.78;;;9.34;44.35
28181;BME280;15464;50.988;10.318;2023-04-25T15:10:49;98606.84;;;9.42;45.26
28181;BME280;15464;50.988;10.318;2023-04-25T15:13:18;98611.59;;;9.88;45.47
28181;BME280;15464;50.988;10.318;2023-04-25T15:15:45;98611.31;;;10.21;45.23
28181;BME280;15464;50.988;10.318;2023-04-25T15:18:19;98612.00;;;9.74;44.83
28181;BME280;15464;50.988;10.318;2023-04-25T15:20:49;98612.53;;;9.67;43.62
28181;BME280;15464;50.988;10.318;2023-04-25T15:23:17;98628.03;;;9.51;44.17
28181;BME280;15464;50.988;10.318;2023-04-25T15:25:44;98625.38;;;9.42;43.86
28181;BME280;15464;50.988;10.318;2023-04-25T15:28:11;98629.59;;;9.54;43.75
28181;BME280;15464;50.988;10.318;2023-04-25T15:30:42;98631.72;;;9.60;44.22
28181;BME280;15464;50.988;10.318;2023-04-25T15:33:09;98637.03;;;9.60;45.02
28181;BME280;15464;50.988;10.318;2023-04-25T15:35:36;98631.31;;;9.64;44.81
28181;BME280;15464;50.988;10.318;2023-04-25T15:38:03;98634.78;;;9.55;43.60
28181;BME280;15464;50.988;10.318;2023-04-25T15:40:30;98636.84;;;9.31;43.88
28181;BME280;15464;50.988;10.318;2023-04-25T15:42:57;98646.03;;;9.27;45.25
28181;BME280;15464;50.988;10.318;2023-04-25T15:45:25;98636.94;;;9.20;44.08
28181;BME280;15464;50.988;10.318;2023-04-25T15:47:54;98639.25;;;9.34;45.39
28181;BME280;15464;50.988;10.318;2023-04-25T15:50:21;98642.84;;;9.33;44.83
28181;BME280;15464;50.988;10.318;2023-04-25T15:52:49;98636.31;;;9.37;45.01
28181;BME280;15464;50.988;10.318;2023-04-25T15:55:18;98635.88;;;9.32;44.53
28181;BME280;15464;50.988;10.318;2023-04-25T15:57:48;98637.31;;;9.36;45.27
28181;BME280;15464;50.988;10.318;2023-04-25T16:00:15;98637.69;;;9.31;45.07
28181;BME280;15464;50.988;10.318;2023-04-25T16:02:44;98640.72;;;9.27;45.39
28181;BME280;15464;50.988;10.318;2023-04-25T16:05:11;98631.13;;;9.26;45.14
28181;BME280;15464;50.988;10.318;2023-04-25T16:07:41;98638.16;;;9.16;46.15
28181;BME280;15464;50.988;10.318;2023-04-25T16:10:09;98639.66;;;9.29;46.31
28181;BME280;15464;50.988;10.318;2023-04-25T16:12:38;98633.88;;;9.24;45.34
28181;BME280;15464;50.988;10.318;2023-04-25T16:15:05;98632.28;;;9.33;44.51
28181;BME280;15464;50.988;10.318;2023-04-25T16:17:32;98642.00;;;9.53;45.14
28181;BME280;15464;50.988;10.318;2023-04-25T16:19:59;98646.69;;;9.50;44.57
28181;BME280;15464;50.988;10.318;2023-04-25T16:22:28;98631.19;;;9.36;42.67
28181;BME280;15464;50.988;10.318;2023-04-25T16:24:55;98646.22;;;9.35;43.11
28181;BME280;15464;50.988;10.318;2023-04-25T16:27:21;98638.72;;;9.19;43.69
28181;BME280;15464;50.988;10.318;2023-04-25T16:29:48;98641.41;;;8.99;44.70
28181;BME280;15464;50.988;10.318;2023-04-25T16:32:16;98639.25;;;8.93;44.94
28181;BME280;15464;50.988;10.318;2023-04-25T16:34:43;98644.06;;;8.87;44.33
28181;BME280;15464;50.988;10.318;2023-04-25T16:37:10;98645.41;;;8.93;44.27
28181;BME280;15464;50.988;10.318;2023-04-25T16:39:37;98643.44;;;8.74;44.64
28181;BME280;15464;50.988;10.318;2023-04-25T16:42:04;98644.25;;;8.75;45.04
28181;BME280;15464;50.988;10.318;2023-04-25T16:44:31;98639.56;;;8.78;45.04
28181;BME280;15464;50.988;10.318;2023-04-25T16:46:58;98642.84;;;8.71;45.17
28181;BME280;15464;50.988;10.318;2023-04-25T16:49:25;98642.09;;;8.80;44.72
28181;BME280;15464;50.988;10.318;2023-04-25T16:51:51;98639.22;;;8.72;44.38
28181;BME280;15464;50.988;10.318;2023-04-25T16:54:18;98647.22;;;8.61;45.73
28181;BME280;15464;50.988;10.318;2023-04-25T16:56:45;98643.44;;;8.74;45.72
28181;BME280;15464;50.988;10.318;2023-04-25T16:59:11;98636.47;;;8.73;46.43
28181;BME280;15464;50.988;10.318;2023-04-25T17:01:38;98652.41;;;8.51;46.96
28181;BME280;15464;50.988;10.318;2023-04-25T17:04:05;98645.44;;;8.50;46.79
28181;BME280;15464;50.988;10.318;2023-04-25T17:06:32;98653.91;;;8.33;47.22
28181;BME280;15464;50.988;10.318;2023-04-25T17:08:58;98655.81;;;8.42;47.66
28181;BME280;15464;50.988;10.318;2023-04-25T17:11:26;98649.28;;;8.46;48.77
28181;BME280;15464;50.988;10.318;2023-04-25T17:13:52;98652.41;;;8.51;48.17
28181;BME280;15464;50.988;10.318;2023-04-25T17:16:19;98656.66;;;8.42;48.84
28181;BME280;15464;50.988;10.318;2023-04-25T17:18:49;98651.97;;;8.35;47.52
28181;BME280;15464;50.988;10.318;2023-04-25T17:21:17;98651.47;;;8.41;46.97
28181;BME280;15464;50.988;10.318;2023-04-25T17:23:44;98660.13;;;8.32;47.33
28181;BME280;15464;50.988;10.318;2023-04-25T17:26:13;98669.47;;;8.25;47.65
28181;BME280;15464;50.988;10.318;2023-04-25T17:28:40;98668.06;;;8.21;48.44
28181;BME280;15464;50.988;10.318;2023-04-25T17:31:07;98675.53;;;8.16;48.68
28181;BME280;15464;50.988;10.318;2023-04-25T17:33:35;98673.94;;;8.13;49.24
28181;BME280;15464;50.988;10.318;2023-04-25T17:36:02;98669.03;;;8.20;48.91
28181;BME280;15464;50.988;10.318;2023-04-25T17:38:29;98681.75;;;8.15;49.38
28181;BME280;15464;50.988;10.318;2023-04-25T17:40:57;98681.53;;;8.18;49.28
28181;BME280;15464;50.988;10.318;2023-04-25T17:43:24;98689.22;;;8.09;49.72
28181;BME280;15464;50.988;10.318;2023-04-25T17:45:53;98696.19;;;8.10;49.86
28181;BME280;15464;50.988;10.318;2023-04-25T17:48:20;98683.56;;;8.14;50.25
28181;BME280;15464;50.988;10.318;2023-04-25T17:50:50;98695.22;;;8.12;50.31
28181;BME280;15464;50.988;10.318;2023-04-25T17:53:16;98691.00;;;8.09;49.97
28181;BME280;15464;50.988;10.318;2023-04-25T17:55:43;98694.97;;;8.03;50.09
28181;BME280;15464;50.988;10.318;2023-04-25T17:58:10;98698.94;;;7.98;50.66
28181;BME280;15464;50.988;10.318;2023-04-25T18:00:37;98708.44;;;7.89;51.03
28181;BME280;15464;50.988;10.318;2023-04-25T18:03:04;98704.47;;;7.84;51.02
28181;BME280;15464;50.988;10.318;2023-04-25T18:05:32;98707.22;;;7.82;51.07
28181;BME280;15464;50.988;10.318;2023-04-25T18:07:59;98705.06;;;7.76;51.27
28181;BME280;15464;50.988;10.318;2023-04-25T18:10:26;98718.50;;;7.73;51.42
28181;BME280;15464;50.988;10.318;2023-04-25T18:12:53;98722.56;;;7.66;52.02
28181;BME280;15464;50.988;10.318;2023-04-25T18:15:19;98720.16;;;7.63;52.17
28181;BME280;15464;50.988;10.318;2023-04-25T18:17:47;98725.69;;;7.60;52.10
28181;BME280;15464;50.988;10.318;2023-04-25T18:20:15;98734.06;;;7.54;52.31
28181;BME280;15464;50.988;10.318;2023-04-25T18:22:43;98735.25;;;7.50;52.64
28181;BME280;15464;50.988;10.318;2023-04-25T18:25:10;98738.59;;;7.41;53.00
28181;BME280;15464;50.988;10.318;2023-04-25T18:27:39;98739.06;;;7.35;52.99
28181;BME280;15464;50.988;10.318;2023-04-25T18:30:08;98750.53;;;7.22;53.94
28181;BME280;15464;50.988;10.318;2023-04-25T18:32:36;98748.56;;;7.13;53.40
28181;BME280;15464;50.988;10.318;2023-04-25T18:35:03;98750.44;;;7.00;54.06
28181;BME280;15464;50.988;10.318;2023-04-25T18:37:30;98762.16;;;6.96;53.64
28181;BME280;15464;50.988;10.318;2023-04-25T18:39:57;98762.63;;;6.90;53.70
28181;BME280;15464;50.988;10.318;2023-04-25T18:42:24;98767.41;;;6.85;54.27
28181;BME280;15464;50.988;10.318;2023-04-25T18:44:50;98772.94;;;6.69;54.30
28181;BME280;15464;50.988;10.318;2023-04-25T18:47:17;98780.31;;;6.64;54.15
28181;BME280;15464;50.988;10.318;2023-04-25T18:49:44;98775.94;;;6.52;54.71
28181;BME280;15464;50.988;10.318;2023-04-25T18:52:11;98789.00;;;6.54;54.24
28181;BME280;15464;50.988;10.318;2023-04-25T18:54:40;98789.97;;;6.53;54.00
28181;BME280;15464;50.988;10.318;2023-04-25T18:57:08;98796.41;;;6.48;54.35
28181;BME280;15464;50.988;10.318;2023-04-25T18:59:34;98803.78;;;6.43;55.07
28181;BME280;15464;50.988;10.318;2023-04-25T19:02:01;98809.03;;;6.43;54.63
28181;BME280;15464;50.988;10.318;2023-04-25T19:04:30;98803.78;;;6.43;54.78
28181;BME280;15464;50.988;10.318;2023-04-25T19:06:58;98808.44;;;6.40;55.46
28181;BME280;15464;50.988;10.318;2023-04-25T19:09:25;98812.84;;;6.39;55.40
28181;BME280;15464;50.988;10.318;2023-04-25T19:11:51;98823.38;;;6.39;55.47
28181;BME280;15464;50.988;10.318;2023-04-25T19:14:18;98820.00;;;6.37;55.44
28181;BME280;15464;50.988;10.318;2023-04-25T19:16:45;98820.25;;;6.34;56.01
28181;BME280;15464;50.988;10.318;2023-04-25T19:19:12;98829.84;;;6.35;55.73
28181;BME280;15464;50.988;10.318;2023-04-25T19:21:39;98820.44;;;6.31;55.63
28181;BME280;15464;50.988;10.318;2023-04-25T19:24:07;98830.25;;;6.29;56.09
28181;BME280;15464;50.988;10.318;2023-04-25T19:26:34;98825.19;;;6.26;56.07
28181;BME280;15464;50.988;10.318;2023-04-25T19:29:06;98833.19;;;6.25;56.74
28181;BME280;15464;50.988;10.318;2023-04-25T19:31:37;98827.97;;;6.12;57.29
28181;BME280;15464;50.988;10.318;2023-04-25T19:34:05;98841.00;;;6.14;57.66
28181;BME280;15464;50.988;10.318;2023-04-25T19:36:32;98838.28;;;6.15;57.35
28181;BME280;15464;50.988;10.318;2023-04-25T19:38:59;98835.72;;;6.14;57.62
28181;BME280;15464;50.988;10.318;2023-04-25T19:41:31;98845.13;;;6.18;57.80
28181;BME280;15464;50.988;10.318;2023-04-25T19:43:58;98840.06;;;6.15;57.83
28181;BME280;15464;50.988;10.318;2023-04-25T19:46:30;98841.00;;;6.14;57.07
28181;BME280;15464;50.988;10.318;2023-04-25T19:48:59;98841.75;;;6.16;57.95
28181;BME280;15464;50.988;10.318;2023-04-25T19:51:27;98843.53;;;6.15;57.74
28181;BME280;15464;50.988;10.318;2023-04-25T19:53:54;98847.84;;;6.16;57.51
28181;BME280;15464;50.988;10.318;2023-04-25T19:56:22;98848.59;;;6.18;57.78
28181;BME280;15464;50.988;10.318;2023-04-25T19:58:49;98841.84;;;6.14;58.13
28181;BME280;15464;50.988;10.318;2023-04-25T20:01:17;98855.00;;;6.14;57.80
28181;BME280;15464;50.988;10.318;2023-04-25T20:03:44;98852.38;;;6.14;57.67
28181;BME280;15464;50.988;10.318;2023-04-25T20:06:13;98853.31;;;6.13;57.85
28181;BME280;15464;50.988;10.318;2023-04-25T20:08:40;98858.38;;;6.16;57.49
28181;BME280;15464;50.988;10.318;2023-04-25T20:11:07;98858.59;;;6.13;58.17
28181;BME280;15464;50.988;10.318;2023-04-25T20:13:34;98863.84;;;6.13;58.12
28181;BME280;15464;50.988;10.318;2023-04-25T20:16:01;98869.13;;;6.13;57.81
28181;BME280;15464;50.988;10.318;2023-04-25T20:18:28;98865.78;;;6.11;58.24
28181;BME280;15464;50.988;10.318;2023-04-25T20:20:55;98864.69;;;6.14;57.86
28181;BME280;15464;50.988;10.318;2023-04-25T20:23:21;98852.69;;;6.10;58.38
28181;BME280;15464;50.988;10.318;2023-04-25T20:25:49;98859.00;;;6.07;59.24
28181;BME280;15464;50.988;10.318;2023-04-25T20:28:15;98860.91;;;6.05;59.38
28181;BME280;15464;50.988;10.318;2023-04-25T20:30:43;98869.00;;;6.02;60.52
28181;BME280;15464;50.988;10.318;2023-04-25T20:33:10;98875.44;;;5.98;60.99
28181;BME280;15464;50.988;10.318;2023-04-25T20:35:36;98877.97;;;5.99;60.89
28181;BME280;15464;50.988;10.318;2023-04-25T20:38:03;98870.81;;;6.01;60.82
28181;BME280;15464;50.988;10.318;2023-04-25T20:40:30;98882.19;;;6.02;60.77
28181;BME280;15464;50.988;10.318;2023-04-25T20:42:57;98885.53;;;5.91;62.20
28181;BME280;15464;50.988;10.318;2023-04-25T20:45:23;98888.81;;;5.95;61.33
28181;BME280;15464;50.988;10.318;2023-04-25T20:47:55;98885.13;;;5.97;61.71
28181;BME280;15464;50.988;10.318;2023-04-25T20:50:22;98893.63;;;5.88;62.56
28181;BME280;15464;50.988;10.318;2023-04-25T20:52:49;98894.13;;;5.81;63.56
28181;BME280;15464;50.988;10.318;2023-04-25T20:55:16;98893.91;;;5.84;62.67
28181;BME280;15464;50.988;10.318;2023-04-25T20:57:43;98890.16;;;5.88;62.54
28181;BME280;15464;50.988;10.318;2023-04-25T21:00:10;98892.22;;;5.83;63.31
28181;BME280;15464;50.988;10.318;2023-04-25T21:02:44;98896.03;;;5.79;63.23
28181;BME280;15464;50.988;10.318;2023-04-25T21:05:12;98890.09;;;5.75;63.32
28181;BME280;15464;50.988;10.318;2023-04-25T21:07:39;98891.69;;;5.78;63.03
28181;BME280;15464;50.988;10.318;2023-04-25T21:10:06;98897.78;;;5.65;64.56
28181;BME280;15464;50.988;10.318;2023-04-25T21:12:33;98897.56;;;5.68;63.29
28181;BME280;15464;50.988;10.318;2023-04-25T21:15:00;98905.84;;;5.62;64.51
28181;BME280;15464;50.988;10.318;2023-04-25T21:17:27;98904.19;;;5.61;64.02
28181;BME280;15464;50.988;10.318;2023-04-25T21:19:54;98903.44;;;5.59;64.14
28181;BME280;15464;50.988;10.318;2023-04-25T21:22:21;98905.63;;;5.53;64.39
28181;BME280;15464;50.988;10.318;2023-04-25T21:24:48;98908.56;;;5.48;64.91
28181;BME280;15464;50.988;10.318;2023-04-25T21:27:16;98914.22;;;5.42;65.05
28181;BME280;15464;50.988;10.318;2023-04-25T21:29:45;98918.19;;;5.35;65.49
28181;BME280;15464;50.988;10.318;2023-04-25T21:32:12;98919.22;;;5.33;65.09
28181;BME280;15464;50.988;10.318;2023-04-25T21:34:42;98923.00;;;5.28;65.31
28181;BME280;15464;50.988;10.318;2023-04-25T21:37:09;98914.34;;;5.26;65.19
28181;BME280;15464;50.988;10.318;2023-04-25T21:39:36;98921.31;;;5.27;65.44
28181;BME280;15464;50.988;10.318;2023-04-25T21:42:03;98923.50;;;5.21;66.15
28181;BME280;15464;50.988;10.318;2023-04-25T21:44:34;98919.16;;;5.20;66.17
28181;BME280;15464;50.988;10.318;2023-04-25T21:47:01;98917.88;;;5.13;66.27
28181;BME280;15464;50.988;10.318;2023-04-25T21:49:30;98926.91;;;5.09;66.30
28181;BME280;15464;50.988;10.318;2023-04-25T21:51:58;98926.72;;;5.12;65.25
28181;BME280;15464;50.988;10.318;2023-04-25T21:54:25;98923.97;;;5.13;65.13
28181;BME280;15464;50.988;10.318;2023-04-25T21:56:52;98923.97;;;5.13;65.62
28181;BME280;15464;50.988;10.318;2023-04-25T21:59:22;98918.63;;;5.15;65.48
28181;BME280;15464;50.988;10.318;2023-04-25T22:01:48;98923.13;;;5.13;65.31
28181;BME280;15464;50.988;10.318;2023-04-25T22:04:15;98924.81;;;5.14;65.24
28181;BME280;15464;50.988;10.318;2023-04-25T22:06:42;98921.25;;;5.15;65.00
28181;BME280;15464;50.988;10.318;2023-04-25T22:09:09;98924.09;;;5.12;65.53
28181;BME280;15464;50.988;10.318;2023-04-25T22:11:36;98920.50;;;5.13;65.44
28181;BME280;15464;50.988;10.318;2023-04-25T22:14:03;98920.63;;;5.11;65.20
28181;BME280;15464;50.988;10.318;2023-04-25T22:16:30;98930.06;;;5.14;65.34
28181;BME280;15464;50.988;10.318;2023-04-25T22:18:57;98926.72;;;5.12;65.69
28181;BME280;15464;50.988;10.318;2023-04-25T22:21:23;98929.34;;;5.12;65.48
28181;BME280;15464;50.988;10.318;2023-04-25T22:23:50;98932.16;;;5.09;66.26
28181;BME280;15464;50.988;10.318;2023-04-25T22:26:18;98940.13;;;5.07;65.95
28181;BME280;15464;50.988;10.318;2023-04-25T22:28:45;98939.94;;;5.10;65.72
28181;BME280;15464;50.988;10.318;2023-04-25T22:31:12;98940.13;;;5.07;66.60
28181;BME280;15464;50.988;10.318;2023-04-25T22:33:39;98936.66;;;5.07;66.03
28181;BME280;15464;50.988;10.318;2023-04-25T22:36:06;98946.22;;;5.08;65.74
28181;BME280;15464;50.988;10.318;2023-04-25T22:38:34;98941.75;;;5.10;66.66
28181;BME280;15464;50.988;10.318;2023-04-25T22:41:01;98947.94;;;5.09;66.84
28181;BME280;15464;50.988;10.318;2023-04-25T22:43:27;98947.84;;;5.10;66.73
28181;BME280;15464;50.988;10.318;2023-04-25T22:45:54;98941.81;;;5.08;66.45
28181;BME280;15464;50.988;10.318;2023-04-25T22:48:22;98953.56;;;5.03;66.77
28181;BME280;15464;50.988;10.318;2023-04-25T22:50:48;98956.13;;;5.04;67.21
28181;BME280;15464;50.988;10.318;2023-04-25T22:53:16;98950.19;;;5.01;66.59
28181;BME280;15464;50.988;10.318;2023-04-25T22:55:43;98958.84;;;5.03;66.85
28181;BME280;15464;50.988;10.318;2023-04-25T22:58:10;98959.75;;;5.02;66.67
28181;BME280;15464;50.988;10.318;2023-04-25T23:00:37;98964.09;;;5.03;66.95
28181;BME280;15464;50.988;10.318;2023-04-25T23:03:04;98963.25;;;5.02;67.04
28181;BME280;15464;50.988;10.318;2023-04-25T23:05:31;98961.09;;;4.95;67.99
28181;BME280;15464;50.988;10.318;2023-04-25T23:07:58;98959.50;;;4.92;68.06
28181;BME280;15464;50.988;10.318;2023-04-25T23:10:26;98956.22;;;4.88;67.92
28181;BME280;15464;50.988;10.318;2023-04-25T23:12:53;98963.53;;;4.83;68.29
28181;BME280;15464;50.988;10.318;2023-04-25T23:15:25;98965.69;;;4.77;69.17
28181;BME280;15464;50.988;10.318;2023-04-25T23:17:52;98964.00;;;4.76;68.46
28181;BME280;15464;50.988;10.318;2023-04-25T23:20:19;98958.88;;;4.74;68.38
28181;BME280;15464;50.988;10.318;2023-04-25T23:22:46;98967.84;;;4.70;68.95
28181;BME280;15464;50.988;10.318;2023-04-25T23:25:13;98962.69;;;4.69;68.39
28181;BME280;15464;50.988;10.318;2023-04-25T23:27:40;98971.41;;;4.69;68.04
28181;BME280;15464;50.988;10.318;2023-04-25T23:30:07;98961.94;;;4.67;68.10
28181;BME280;15464;50.988;10.318;2023-04-25T23:32:35;98964.59;;;4.67;68.02
28181;BME280;15464;50.988;10.318;2023-04-25T23:35:02;98973.31;;;4.67;68.11
28181;BME280;15464;50.988;10.318;2023-04-25T23:37:34;98987.38;;;4.66;67.48
28181;BME280;15464;50.988;10.318;2023-04-25T23:40:03;98981.56;;;4.61;68.01
28181;BME280;15464;50.988;10.318;2023-04-25T23:42:39;98977.41;;;4.57;68.72
28181;BME280;15464;50.988;10.318;2023-04-25T23:45:07;98982.09;;;4.52;68.53
28181;BME280;15464;50.988;10.318;2023-04-25T23:47:34;98984.94;;;4.49;69.10
28181;BME280;15464;50.988;10.318;2023-04-25T23:50:02;98986.88;;;4.45;68.27
28181;BME280;15464;50.988;10.318;2023-04-25T23:52:29;98989.88;;;4.39;69.64
28181;BME280;15464;50.988;10.318;2023-04-25T23:54:55;98990.91;;;4.37;68.58
28181;BME280;15464;50.988;10.318;2023-04-25T23:57:22;98993.72;;;4.34;69.68
28181;BME280;15464;50.988;10.318;2023-04-25T23:59:49;98987.69;;;4.32;69.46
